Goldendale, Washington
Current Conditions -  °F | °C
As of 7:53 PM on Tuesday 25 Nov 2014 (Local Time) from KDLS Reporting Station
Overcast Overcast  
Wind Chill: 59°   Ceiling: 5500
Heat Index: 59°   Visibility: 10mi
Dew Point: 50°   Wind: 3mph
Humidity: 72%   Direction: 290°WNW
Pressure: 30.22"   Gusts: NA
Location:  45.82°N, 120.82°W
Report Text: KDLS 260353Z AUTO 29003KT 10SM SCT047 OVC055 15/10 A3022 RMK AO2 SLP231 T01500100
Loading
Personal Weather Stations






























Interactive Weather Map New forecast layout! Learn more

10-Day Weather Forecast

Advertisements
Track Severe Weather on mobile